Time,TemperatureF,DewpointF,PressureIn,WindDirection,WindDirectionDegrees,WindSpeedMPH,WindSpeedGustMPH,Humidity,HourlyPrecipIn,Conditions,Clouds,dailyrainin,SoftwareType,DateUTC
2013-06-02 00:01:00,63.0,36.9,29.77,ENE,67,3.0,7.0,38,0.00,,,0.00,Weather View 32 v70,2013-06-02 04:01:00,
2013-06-02 00:04:00,63.0,36.9,29.77,ENE,67,3.0,7.0,38,0.00,,,0.00,Weather View 32 v70,2013-06-02 04:04:00,
2013-06-02 00:31:00,63.0,36.9,29.77,ESE,112,3.0,6.0,38,0.00,,,0.00,Weather View 32 v70,2013-06-02 04:31:00,
2013-06-02 01:01:00,62.0,32.5,29.77,ENE,67,2.0,6.0,33,0.00,,,0.00,Weather View 32 v70,2013-06-02 05:01:00,
2013-06-02 01:31:00,61.0,30.1,29.77,ENE,67,0.0,6.0,31,0.00,,,0.00,Weather View 32 v70,2013-06-02 05:31:00,
2013-06-02 02:01:00,61.0,25.8,29.76,ENE,67,0.0,6.0,26,0.00,,,0.00,Weather View 32 v70,2013-06-02 06:01:00,
2013-06-02 02:31:00,61.0,23.9,29.76,NNE,22,0.0,6.0,24,0.00,,,0.00,Weather View 32 v70,2013-06-02 06:31:00,
2013-06-02 03:02:00,60.0,19.9,29.76,NNE,22,2.0,6.0,21,0.00,,,0.00,Weather View 32 v70,2013-06-02 07:02:00,
2013-06-02 03:08:00,60.0,19.9,29.76,NNE,22,2.0,6.0,21,0.00,,,0.00,Weather View 32 v70,2013-06-02 07:08:00,
2013-06-02 03:31:00,61.0,6.0,29.75,SE,135,5.0,9.0,11,0.00,,,0.00,Weather View 32 v70,2013-06-02 07:31:00,
2013-06-02 04:00:00,60.0,-1.6,29.76,East,90,0.0,9.0,8,0.00,,,0.00,Weather View 32 v70,2013-06-02 08:00:00,
2013-06-02 04:02:00,60.0,-1.6,29.76,East,90,0.0,9.0,8,0.00,,,0.00,Weather View 32 v70,2013-06-02 08:02:00,
2013-06-02 04:31:00,60.0,-11.3,29.76,NNE,22,3.0,6.0,5,0.00,,,0.00,Weather View 32 v70,2013-06-02 08:31:00,
2013-06-02 05:00:00,59.0,-41.7,29.77,NE,45,3.0,6.0,1,0.00,,,0.00,Weather View 32 v70,2013-06-02 09:00:00,
2013-06-02 05:01:00,59.0,-41.7,29.77,NE,45,3.0,6.0,1,0.00,,,0.00,Weather View 32 v70,2013-06-02 09:01:00,
2013-06-02 05:31:00,60.0,-41.1,29.77,NE,45,4.0,6.0,1,0.00,,,0.00,Weather View 32 v70,2013-06-02 09:31:00,
2013-06-02 06:00:00,61.0,-3.7,29.76,East,90,2.0,6.0,7,0.00,,,0.00,Weather View 32 v70,2013-06-02 10:00:00,
2013-06-02 06:02:00,61.0,-3.7,29.76,East,90,2.0,6.0,7,0.00,,,0.00,Weather View 32 v70,2013-06-02 10:02:00,
2013-06-02 06:31:00,62.0,16.6,29.77,ENE,67,3.0,7.0,17,0.00,,,0.00,Weather View 32 v70,2013-06-02 10:31:00,
2013-06-02 07:00:00,63.0,24.5,29.77,NE,45,2.0,7.0,23,0.00,,,0.00,Weather View 32 v70,2013-06-02 11:00:00,
2013-06-02 07:01:00,63.0,24.5,29.77,NE,45,2.0,7.0,23,0.00,,,0.00,Weather View 32 v70,2013-06-02 11:01:00,
2013-06-02 07:30:00,65.0,32.7,29.77,East,90,6.0,8.0,30,0.00,,,0.00,Weather View 32 v70,2013-06-02 11:30:00,
2013-06-02 08:00:00,64.0,35.7,29.78,East,90,4.0,9.0,35,0.00,,,0.00,Weather View 32 v70,2013-06-02 12:00:00,
2013-06-02 08:01:00,64.0,35.7,29.78,East,90,4.0,9.0,35,0.00,,,0.00,Weather View 32 v70,2013-06-02 12:01:00,
2013-06-02 08:30:00,66.0,33.6,29.77,ENE,67,1.0,9.0,30,0.00,,,0.00,Weather View 32 v70,2013-06-02 12:30:00,
2013-06-02 09:01:00,67.0,41.2,29.76,ENE,67,2.0,9.0,39,0.00,,,0.00,Weather View 32 v70,2013-06-02 13:01:00,
2013-06-02 09:32:00,67.0,45.5,29.77,ENE,67,5.0,9.0,46,0.00,,,0.00,Weather View 32 v70,2013-06-02 13:32:00,
2013-06-02 10:01:00,71.0,53.5,29.74,NE,45,3.0,9.0,54,0.00,,,0.00,Weather View 32 v70,2013-06-02 14:01:00,
2013-06-02 10:31:00,70.0,51.5,29.76,NNE,22,5.0,10.0,52,0.00,,,0.00,Weather View 32 v70,2013-06-02 14:31:00,
2013-06-02 11:01:00,71.0,51.9,29.74,North,360,9.0,12.0,51,0.00,,,0.00,Weather View 32 v70,2013-06-02 15:01:00,
2013-06-02 11:31:00,71.0,53.5,29.73,East,90,10.0,13.0,54,0.00,,,0.00,Weather View 32 v70,2013-06-02 15:31:00,
2013-06-02 12:01:00,69.0,47.9,29.74,East,90,8.0,13.0,47,0.00,,,0.00,Weather View 32 v70,2013-06-02 16:01:00,
2013-06-02 12:31:00,68.0,43.4,29.72,SSE,157,4.0,17.0,41,0.00,,,0.00,Weather View 32 v70,2013-06-02 16:31:00,
2013-06-02 13:01:00,67.0,44.3,29.73,ENE,67,8.0,22.0,44,0.00,,,0.00,Weather View 32 v70,2013-06-02 17:01:00,
2013-06-02 13:31:00,68.0,47.0,29.70,ENE,67,6.0,22.0,47,0.00,,,0.00,Weather View 32 v70,2013-06-02 17:31:00,
2013-06-02 14:01:00,68.0,49.1,29.69,NE,45,8.0,15.0,51,0.00,,,0.00,Weather View 32 v70,2013-06-02 18:01:00,
2013-06-02 14:31:00,67.0,44.9,29.68,ENE,67,4.0,16.0,45,0.00,,,0.00,Weather View 32 v70,2013-06-02 18:31:00,
2013-06-02 15:02:00,68.0,48.1,29.68,ENE,67,9.0,16.0,49,0.00,,,0.00,Weather View 32 v70,2013-06-02 19:02:00,
2013-06-02 15:31:00,67.0,47.2,29.67,NE,45,10.0,15.0,49,0.00,,,0.00,Weather View 32 v70,2013-06-02 19:31:00,
2013-06-02 16:01:00,67.0,47.2,29.66,NE,45,8.0,16.0,49,0.00,,,0.00,Weather View 32 v70,2013-06-02 20:01:00,
2013-06-02 16:32:00,67.0,46.1,29.64,NNE,22,10.0,16.0,47,0.00,,,0.00,Weather View 32 v70,2013-06-02 20:32:00,
2013-06-02 17:01:00,75.0,62.8,29.63,ESE,112,6.0,31.0,66,0.00,,,0.00,Weather View 32 v70,2013-06-02 21:01:00,
2013-06-02 17:30:00,77.0,68.8,29.63,SSE,157,15.0,31.0,76,0.00,,,0.00,Weather View 32 v70,2013-06-02 21:30:00,
2013-06-02 17:33:00,77.0,68.8,29.63,SSE,157,15.0,31.0,76,0.00,,,0.00,Weather View 32 v70,2013-06-02 21:33:00,
2013-06-02 18:01:00,77.0,72.8,29.61,SSW,202,9.0,32.0,87,0.00,,,0.00,Weather View 32 v70,2013-06-02 22:01:00,
2013-06-02 18:30:00,74.0,71.2,29.63,SE,135,6.0,32.0,91,0.00,,,0.00,Weather View 32 v70,2013-06-02 22:30:00,
2013-06-02 19:01:00,74.0,71.2,29.65,SW,225,9.0,26.0,91,0.00,,,0.00,Weather View 32 v70,2013-06-02 23:01:00,
2013-06-02 19:30:00,73.0,69.6,29.66,ESE,112,3.0,20.0,89,0.00,,,0.00,Weather View 32 v70,2013-06-02 23:30:00,
2013-06-02 19:33:00,73.0,69.6,29.66,ESE,112,3.0,20.0,89,0.00,,,0.00,Weather View 32 v70,2013-06-02 23:33:00,
2013-06-02 20:01:00,69.0,53.6,29.68,North,360,2.0,16.0,58,0.00,,,0.00,Weather View 32 v70,2013-06-03 00:01:00,
2013-06-02 20:30:00,68.0,50.2,29.68,NE,45,2.0,7.0,53,0.00,,,0.00,Weather View 32 v70,2013-06-03 00:30:00,
2013-06-02 20:34:00,68.0,50.2,29.68,NE,45,2.0,7.0,53,0.00,,,0.00,Weather View 32 v70,2013-06-03 00:34:00,
2013-06-02 21:01:00,65.0,39.4,29.70,NNE,22,4.0,7.0,39,0.00,,,0.00,Weather View 32 v70,2013-06-03 01:01:00,
2013-06-02 21:30:00,63.0,34.1,29.72,ENE,67,6.0,10.0,34,0.00,,,0.00,Weather View 32 v70,2013-06-03 01:30:00,
2013-06-02 21:31:00,63.0,34.1,29.72,ENE,67,6.0,10.0,34,0.00,,,0.00,Weather View 32 v70,2013-06-03 01:31:00,
2013-06-02 22:02:00,62.0,-9.8,29.74,North,360,3.0,10.0,5,0.00,,,0.00,Weather View 32 v70,2013-06-03 02:02:00,
2013-06-02 22:30:00,62.0,-39.9,29.72,NE,45,4.0,9.0,1,0.00,,,0.00,Weather View 32 v70,2013-06-03 02:30:00,
2013-06-02 22:31:00,62.0,-39.9,29.72,NE,45,4.0,9.0,1,0.00,,,0.00,Weather View 32 v70,2013-06-03 02:31:00,
2013-06-02 23:00:00,63.0,-39.3,29.72,NNW,337,5.0,9.0,1,0.00,,,0.00,Weather View 32 v70,2013-06-03 03:00:00,
2013-06-02 23:31:00,62.0,-39.9,29.72,NNE,22,4.0,9.0,1,0.00,,,0.00,Weather View 32 v70,2013-06-03 03:31:00,